Double-wide — WDH5819 — position and weather

sailwx.info

Track history (hours):
 
Tides and Currents Weather Stations Pressure Air Temp Water Temp Dewpoint Dewpoint Depression Visibility Wind Speed Wind Dir Waves Ship Positions

Double-wide

Owner: Clark Jr, Charles R, Naples, FL. More information available from US FCC via Universal Licensing System and Coast Guard Vessel Documentation Center.

Last reported at 2017-Dec-01 11:45 UTC. Time now 2018-Feb-22 03:30 UTC.
Position N 34°43' W 076°49'.
Warning: this ship's position is months out of date.

Length 12 m.

Type: Sailing vessel. MMSI: 367631780.

Date/timePositionNaut miles runAvg speedWind from/ knotsBaromVisibWave heightAir tempDewpointWater temp
2017-Dec-01 11:45N 34°43' W 076°49'2 7.4
2017-Dec-01 11:30N 34°43' W 076°46'3 6.3
2017-Dec-01 10:58N 34°43' W 076°42'0 0.0
2017-Nov-30 19:07N 34°43' W 076°42'0 0.0
2017-Nov-30 19:00N 34°43' W 076°42'0 0.0
2017-Nov-30 18:30N 34°43' W 076°42'1 1.2
2017-Nov-30 18:00N 34°43' W 076°42'2 3.7
2017-Nov-30 17:30N 34°45' W 076°41'3 6.4
2017-Nov-30 17:00N 34°48' W 076°41'  
2017-Nov-27 15:48N 36°45' W 076°18'1 3.0
2017-Nov-27 15:25N 36°47' W 076°18'0 0.1
2017-Nov-27 14:58N 36°47' W 076°18'0 0.7
2017-Nov-27 14:30N 36°47' W 076°18'3 5.2
2017-Nov-27 14:00N 36°49' W 076°17'  
Track history (hours):
 
Tides and Currents Weather Stations Pressure Air Temp Water Temp Dewpoint Dewpoint Depression Visibility Wind Speed Wind Dir Waves Ship Positions

Double-wide

Owner: Clark Jr, Charles R, Naples, FL. More information available from US FCC via Universal Licensing System and Coast Guard Vessel Documentation Center.

Last reported at 2017-Dec-01 11:45 UTC. Time now 2018-Feb-22 03:30 UTC.
Position N 34°43' W 076°49'.
Warning: this ship's position is months out of date.

Length 12 m.

Type: Sailing vessel. MMSI: 367631780.

Date/timePositionNaut miles runAvg speedWind from/ knotsBaromVisibWave heightAir tempDewpointWater temp
2017-Dec-01 11:45N 34°43' W 076°49'2 7.4
2017-Dec-01 11:30N 34°43' W 076°46'3 6.3
2017-Dec-01 10:58N 34°43' W 076°42'0 0.0
2017-Nov-30 19:07N 34°43' W 076°42'0 0.0
2017-Nov-30 19:00N 34°43' W 076°42'0 0.0
2017-Nov-30 18:30N 34°43' W 076°42'1 1.2
2017-Nov-30 18:00N 34°43' W 076°42'2 3.7
2017-Nov-30 17:30N 34°45' W 076°41'3 6.4
2017-Nov-30 17:00N 34°48' W 076°41'  
2017-Nov-27 15:48N 36°45' W 076°18'1 3.0
2017-Nov-27 15:25N 36°47' W 076°18'0 0.1
2017-Nov-27 14:58N 36°47' W 076°18'0 0.7
2017-Nov-27 14:30N 36°47' W 076°18'3 5.2
2017-Nov-27 14:00N 36°49' W 076°17'  

Dump ship's entire track history